Federal Yukina — VRHN7 — position and weather

sailwx.info

Track history (hours):
 
Tides and Currents Weather Stations Pressure Air Temp Water Temp Dewpoint Dewpoint Depression Visibility Wind Speed Wind Dir Waves Ship Positions

Federal Yukina

Last reported at 2017-Dec-11 17:00 UTC. Time now 2017-Dec-11 19:16 UTC.
Position N 55°47' E 012°42'.

Length 200 m; draft 7 m.

Type: Cargo ship. MMSI: 477959900.

Date/timePositionNaut miles runAvg speedWind from/ knotsBaromVisibWave heightAir tempDewpointWater temp
2017-Dec-11 17:00N 55°47' E 012°42'612.4
2017-Dec-11 16:30N 55°53' E 012°40'612.1
2017-Dec-11 16:00N 55°59' E 012°40'611.9
2017-Dec-11 15:30N 56°05' E 012°36'510.1
2017-Dec-11 15:00N 56°08' E 012°29'4 8.7
2017-Dec-11 14:30N 56°10' E 012°23'510.2
2017-Dec-11 14:00N 56°13' E 012°15'5010.2
2017-Dec-11 09:06N 57°00' E 011°42'110.5
2017-Dec-11 09:00N 57°01' E 011°42'510.4
2017-Dec-11 08:30N 57°06' E 011°38'510.2
2017-Dec-11 08:00N 57°11' E 011°35'510.1
2017-Dec-11 07:30N 57°15' E 011°32'5 9.9
2017-Dec-11 07:00N 57°20' E 011°29'5 9.7
2017-Dec-11 06:30N 57°25' E 011°26'5 9.7
2017-Dec-11 06:00N 57°29' E 011°21'510.2
2017-Dec-11 05:30N 57°32' E 011°14'510.3
2017-Dec-11 05:00N 57°36' E 011°08'510.2
2017-Dec-11 04:30N 57°39' E 011°01'510.1
2017-Dec-11 04:00N 57°43' E 010°54'5 9.9
2017-Dec-11 03:30N 57°46' E 010°47'5 9.4
2017-Dec-11 03:00N 57°49' E 010°41'4 8.3
2017-Dec-11 02:30N 57°52' E 010°35'510.9
2017-Dec-11 02:00N 57°56' E 010°27'611.1
2017-Dec-11 01:29N 57°60' E 010°19'19 9.0
2017-Dec-10 23:25N 57°56' E 009°45'4 9.8
2017-Dec-10 22:59N 57°53' E 009°38'611.5
2017-Dec-10 22:29N 57°50' E 009°29'611.4
2017-Dec-10 21:59N 57°47' E 009°20'11711.7
2017-Dec-10 12:00N 56°18' E 007°00'17611.1 160 / 10992.5 5.4 6.0 3.610.5
2017-Dec-09 20:14N 53°39' E 004°52'211.1
2017-Dec-09 20:00N 53°36' E 004°50'510.1
2017-Dec-09 19:30N 53°32' E 004°48'3 6.5
2017-Dec-09 18:59N 53°29' E 004°45'5 9.4
2017-Dec-09 18:27N 53°24' E 004°42'4 9.4
2017-Dec-09 18:00N 53°20' E 004°41'5 9.5
2017-Dec-09 17:30N 53°15' E 004°38'5 9.6
2017-Dec-09 17:00N 53°11' E 004°34'5 9.6
2017-Dec-09 16:30N 53°07' E 004°30'5 9.6
2017-Dec-09 16:00N 53°03' E 004°26'5 9.4
2017-Dec-09 15:31N 52°59' E 004°22'5 9.0
2017-Dec-09 15:01N 52°55' E 004°19'5 9.6
2017-Dec-09 14:31N 52°50' E 004°15'5 9.3
2017-Dec-09 14:00N 52°47' E 004°11'4 8.3
2017-Dec-09 13:31N 52°43' E 004°07'4 7.9
2017-Dec-09 13:00N 52°39' E 004°05'4 7.8
2017-Dec-09 12:30N 52°36' E 004°06'3 6.8
2017-Dec-09 12:01N 52°33' E 004°09'4 7.5
2017-Dec-09 11:31N 52°32' E 004°15'2 3.1
2017-Dec-09 11:01N 52°33' E 004°18'1 2.6
2017-Dec-09 10:31N 52°34' E 004°20'1 2.4
2017-Dec-09 10:01N 52°35' E 004°21'2 3.3
2017-Dec-09 09:31N 52°36' E 004°20'0 1.0
2017-Dec-09 09:01N 52°36' E 004°20'1 1.2
2017-Dec-09 08:30N 52°36' E 004°21'1 1.4
2017-Dec-09 08:01N 52°35' E 004°20'1 1.3
2017-Dec-09 07:31N 52°35' E 004°20'1 1.2
2017-Dec-09 07:01N 52°34' E 004°19'0 1.0
2017-Dec-09 06:31N 52°34' E 004°19'1 1.7
2017-Dec-09 06:00N 52°33' E 004°18'1 1.2
2017-Dec-09 05:31N 52°32' E 004°18'1 1.0
2017-Dec-09 05:01N 52°32' E 004°18'0 0.1
2017-Dec-09 04:30N 52°32' E 004°18'0 0.2
2017-Dec-09 04:01N 52°32' E 004°18'0 0.6
2017-Dec-09 03:31N 52°32' E 004°19'0 0.5
2017-Dec-09 03:01N 52°32' E 004°18'0 0.9
2017-Dec-09 02:30N 52°32' E 004°19'0 0.3
2017-Dec-09 02:00N 52°32' E 004°19'0 0.5
2017-Dec-09 01:30N 52°32' E 004°18'0 0.8
2017-Dec-09 01:00N 52°31' E 004°19'0 0.7
2017-Dec-09 00:31N 52°31' E 004°19'0 0.1
2017-Dec-09 00:00N 52°31' E 004°19'0 0.5
2017-Dec-08 23:31N 52°31' E 004°19'0 0.3
2017-Dec-08 23:00N 52°31' E 004°19'0 0.4
2017-Dec-08 22:31N 52°31' E 004°19'0 0.6
2017-Dec-08 22:01N 52°31' E 004°18'1 1.4
2017-Dec-08 21:31N 52°32' E 004°19'1 1.3
2017-Dec-08 21:00N 52°32' E 004°19'1 1.0
2017-Dec-08 20:31N 52°33' E 004°19'0 0.7
2017-Dec-08 20:00N 52°33' E 004°20'0 0.5
2017-Dec-08 19:30N 52°33' E 004°20'0 0.5
2017-Dec-08 19:00N 52°33' E 004°20'1 1.1
2017-Dec-08 18:31N 52°33' E 004°21'0 0.5
2017-Dec-08 18:00N 52°33' E 004°21'0 0.2
2017-Dec-08 17:30N 52°33' E 004°21'0 0.7
2017-Dec-08 17:00N 52°34' E 004°22'1 1.7
2017-Dec-08 16:31N 52°34' E 004°23'0 0.8
2017-Dec-08 16:00N 52°33' E 004°23'1 1.7
2017-Dec-08 15:30N 52°33' E 004°22'0 1.0
2017-Dec-08 15:00N 52°33' E 004°21'1 1.2
2017-Dec-08 14:31N 52°33' E 004°20'0 0.9
2017-Dec-08 14:01N 52°33' E 004°20'1 1.7
2017-Dec-08 13:30N 52°33' E 004°18'2 3.4
2017-Dec-08 13:01N 52°32' E 004°16'2 4.1
2017-Dec-08 12:31N 52°30' E 004°16'1 1.5
2017-Dec-08 12:01N 52°30' E 004°17'1 2.0
2017-Dec-08 11:31N 52°30' E 004°19'1 2.7
2017-Dec-08 11:01N 52°30' E 004°21'1 2.8
2017-Dec-08 10:31N 52°29' E 004°23'2 3.9
2017-Dec-08 10:01N 52°29' E 004°26'4 7.5
2017-Dec-08 09:30N 52°28' E 004°32'2 4.1
2017-Dec-08 08:59N 52°28' E 004°36'0 0.0
2017-Dec-08 08:30N 52°28' E 004°36'0 0.0
2017-Dec-08 08:00N 52°28' E 004°36'0 0.0
2017-Dec-08 07:30N 52°28' E 004°36'0 0.0
2017-Dec-08 07:00N 52°28' E 004°36'0 0.0
2017-Dec-08 06:29N 52°28' E 004°36'0 0.0
2017-Dec-08 05:59N 52°28' E 004°36'0 0.0
2017-Dec-08 05:29N 52°28' E 004°36'0 0.0
2017-Dec-08 05:00N 52°28' E 004°36'0 0.0
2017-Dec-08 04:29N 52°28' E 004°36'0 0.0
2017-Dec-08 04:00N 52°28' E 004°36'0 0.0
2017-Dec-08 03:29N 52°28' E 004°36'0 0.0
2017-Dec-08 03:00N 52°28' E 004°36'0 0.0
2017-Dec-08 02:29N 52°28' E 004°36'0 0.0
2017-Dec-08 01:59N 52°28' E 004°36'0 0.0
2017-Dec-08 01:30N 52°28' E 004°36'0 0.0
2017-Dec-08 01:00N 52°28' E 004°36'0 0.0
2017-Dec-08 00:30N 52°28' E 004°36'0 0.0
2017-Dec-08 00:00N 52°28' E 004°36'0 0.0
2017-Dec-07 23:30N 52°28' E 004°36'0 0.0
2017-Dec-07 23:00N 52°28' E 004°36'0 0.0
2017-Dec-07 22:29N 52°28' E 004°36'0 0.0
2017-Dec-07 22:00N 52°28' E 004°36'0 0.0
2017-Dec-07 21:29N 52°28' E 004°36'0 0.0
2017-Dec-07 20:59N 52°28' E 004°36'0 0.0
2017-Dec-07 20:29N 52°28' E 004°36'0 0.0
2017-Dec-07 19:59N 52°28' E 004°36'0 0.0
2017-Dec-07 19:29N 52°28' E 004°36'0 0.0
2017-Dec-07 18:59N 52°28' E 004°36'0 0.0
2017-Dec-07 18:29N 52°28' E 004°36'0 0.0
2017-Dec-07 17:59N 52°28' E 004°36'0 0.0
2017-Dec-07 17:29N 52°28' E 004°36'0 0.0
2017-Dec-07 16:59N 52°28' E 004°36'0 0.0
2017-Dec-07 16:29N 52°28' E 004°36'0 0.0
2017-Dec-07 15:59N 52°28' E 004°36'0 0.0
2017-Dec-07 15:29N 52°28' E 004°36'0 0.0
2017-Dec-07 14:59N 52°28' E 004°36'0 0.0
2017-Dec-07 14:26N 52°28' E 004°36'0 0.0
2017-Dec-07 13:59N 52°28' E 004°36'0 0.0
2017-Dec-07 13:29N 52°28' E 004°36'0 0.0
2017-Dec-07 12:59N 52°28' E 004°36'0 0.0
2017-Dec-07 12:29N 52°28' E 004°36'0 0.0
2017-Dec-07 11:59N 52°28' E 004°36'0 0.0
2017-Dec-07 11:29N 52°28' E 004°36'0 0.0
2017-Dec-07 10:59N 52°28' E 004°36'0 0.0
2017-Dec-07 10:29N 52°28' E 004°36'0 0.0
2017-Dec-07 09:59N 52°28' E 004°36'0 0.0
2017-Dec-07 09:29N 52°28' E 004°36'0 0.0
2017-Dec-07 08:59N 52°28' E 004°36'0 0.0
2017-Dec-07 08:29N 52°28' E 004°36'0 0.0
2017-Dec-07 07:59N 52°28' E 004°36'0 0.0
2017-Dec-07 07:29N 52°28' E 004°36'0 0.0
2017-Dec-07 06:59N 52°28' E 004°36'0 0.0
2017-Dec-07 06:29N 52°28' E 004°36'0 0.0
2017-Dec-07 05:59N 52°28' E 004°36'0 0.0
2017-Dec-07 05:29N 52°28' E 004°36'0 0.0
2017-Dec-07 04:59N 52°28' E 004°36'0 0.0
2017-Dec-07 04:29N 52°28' E 004°36'0 0.0
2017-Dec-07 03:59N 52°28' E 004°36'0 0.0
2017-Dec-07 03:29N 52°28' E 004°36'0 0.0
2017-Dec-07 02:59N 52°28' E 004°36'0 0.0
2017-Dec-07 02:29N 52°28' E 004°36'0 0.0
2017-Dec-07 01:59N 52°28' E 004°36'0 0.0
2017-Dec-07 01:29N 52°28' E 004°36'0 0.0
2017-Dec-07 00:59N 52°28' E 004°36'0 0.0
2017-Dec-07 00:29N 52°28' E 004°36'0 0.0
2017-Dec-06 23:59N 52°28' E 004°36'0 0.0
2017-Dec-06 23:29N 52°28' E 004°36'0 0.0
2017-Dec-06 22:59N 52°28' E 004°36'0 0.0
2017-Dec-06 22:29N 52°28' E 004°36'0 0.0
2017-Dec-06 21:59N 52°28' E 004°36'0 0.0
2017-Dec-06 21:29N 52°28' E 004°36'0 0.0
2017-Dec-06 20:59N 52°28' E 004°36'14 0.4
2017-Dec-05 12:00N 52°30' E 004°12'0 0.0 270 / 151037.2 5.4 10.0 7.910.0
2017-Dec-04 13:00N 52°30' E 004°12'3 1.3 290 / 251035.1 5.4 9.0 6.910.5
2017-Dec-04 10:30N 52°32' E 004°16'0 0.0
2017-Dec-04 10:00N 52°32' E 004°16'0 0.0
2017-Dec-04 09:30N 52°32' E 004°16'0 0.0
2017-Dec-04 09:00N 52°32' E 004°16'0 0.0
2017-Dec-04 08:30N 52°32' E 004°16'0 0.0
2017-Dec-04 07:59N 52°32' E 004°16'0 0.1
2017-Dec-04 07:30N 52°32' E 004°16'0 0.1
2017-Dec-04 06:59N 52°32' E 004°16'0 0.1
2017-Dec-04 06:30N 52°32' E 004°16'0 0.0
2017-Dec-04 06:00N 52°32' E 004°16'0 0.4
2017-Dec-04 05:30N 52°32' E 004°16'0 0.2
2017-Dec-04 04:59N 52°32' E 004°16'0 0.1
2017-Dec-04 04:30N 52°32' E 004°16'0 0.0
2017-Dec-04 03:59N 52°32' E 004°16'0 0.0
2017-Dec-04 03:30N 52°32' E 004°16'0 0.0
2017-Dec-04 02:59N 52°32' E 004°16'0 0.0
2017-Dec-04 02:29N 52°32' E 004°16'0 0.1
2017-Dec-04 01:59N 52°32' E 004°16'0 0.3
2017-Dec-04 01:29N 52°32' E 004°16'0 0.2
2017-Dec-04 01:00N 52°32' E 004°16'0 0.1
2017-Dec-04 00:30N 52°32' E 004°16'0 0.1
2017-Dec-04 00:00N 52°32' E 004°16'0 0.0
2017-Dec-03 23:29N 52°32' E 004°16'0 0.0
2017-Dec-03 23:00N 52°32' E 004°16'0 0.0
2017-Dec-03 22:29N 52°32' E 004°16'0 0.0
2017-Dec-03 22:00N 52°32' E 004°16'0 0.0
2017-Dec-03 21:30N 52°32' E 004°16'0 0.0
2017-Dec-03 21:00N 52°32' E 004°16'0 0.0
2017-Dec-03 20:29N 52°32' E 004°16'0 0.0
2017-Dec-03 19:59N 52°32' E 004°16'0 0.0
2017-Dec-03 19:26N 52°32' E 004°16'0 0.1
2017-Dec-03 18:57N 52°32' E 004°16'0 0.1
2017-Dec-03 18:29N 52°32' E 004°16'0 0.1
2017-Dec-03 18:00N 52°32' E 004°16'0 0.2
2017-Dec-03 17:29N 52°32' E 004°16'0 0.2
2017-Dec-03 17:00N 52°32' E 004°16'0 0.1
2017-Dec-03 16:29N 52°32' E 004°16'0 0.0
2017-Dec-03 16:00N 52°32' E 004°16'0 0.0
2017-Dec-03 15:30N 52°32' E 004°16'0 0.0
2017-Dec-03 15:00N 52°32' E 004°16'0 0.0
2017-Dec-03 14:30N 52°32' E 004°16'0 0.0
2017-Dec-03 14:00N 52°32' E 004°16'312035.4
2017-Dec-03 14:00N 52°30' E 004°12'3 6.7 320 / 151028.1 2.2 6.0 3.611.0
2017-Dec-03 13:30N 52°32' E 004°16'0 0.1
2017-Dec-03 12:59N 52°32' E 004°16'0 0.3
2017-Dec-03 12:29N 52°32' E 004°16'0 0.1
2017-Dec-03 11:59N 52°32' E 004°16'0 0.1
2017-Dec-03 11:29N 52°32' E 004°16'0 0.1
2017-Dec-03 11:00N 52°32' E 004°16'0 0.0
2017-Dec-03 10:29N 52°32' E 004°16'0 0.0
2017-Dec-03 10:00N 52°32' E 004°16'0 0.0
2017-Dec-03 09:30N 52°32' E 004°16'0 0.0
2017-Dec-03 08:59N 52°32' E 004°16'0 0.0
2017-Dec-03 08:30N 52°32' E 004°16'0 0.0
2017-Dec-03 08:00N 52°32' E 004°16'0 0.0
2017-Dec-03 07:30N 52°32' E 004°16'0 0.0
2017-Dec-03 07:00N 52°32' E 004°16'0 0.1
2017-Dec-03 06:30N 52°32' E 004°16'0 0.2
2017-Dec-03 06:00N 52°32' E 004°16'0 0.1
2017-Dec-03 05:29N 52°32' E 004°16'0 0.2
2017-Dec-03 05:00N 52°32' E 004°16'0 0.1
2017-Dec-03 04:30N 52°32' E 004°16'0 0.1
2017-Dec-03 03:59N 52°32' E 004°16'0 0.0
2017-Dec-03 03:29N 52°32' E 004°16'0 0.0
2017-Dec-03 03:00N 52°32' E 004°16'0 0.0
2017-Dec-03 02:29N 52°32' E 004°16'0 0.0
2017-Dec-03 01:59N 52°32' E 004°16'0 0.0
2017-Dec-03 01:29N 52°32' E 004°16'0 0.1
2017-Dec-03 01:00N 52°32' E 004°16'0 0.1
2017-Dec-03 00:29N 52°32' E 004°16'0 0.1
2017-Dec-02 23:56N 52°32' E 004°16'0 0.2
2017-Dec-02 23:30N 52°32' E 004°16'0 0.2
2017-Dec-02 23:00N 52°32' E 004°16'0 0.1
2017-Dec-02 22:30N 52°32' E 004°16'0 0.0
2017-Dec-02 21:59N 52°32' E 004°16'0 0.0
2017-Dec-02 21:30N 52°32' E 004°16'0 0.0
2017-Dec-02 20:59N 52°32' E 004°16'0 0.0
2017-Dec-02 20:30N 52°32' E 004°16'0 0.0
2017-Dec-02 19:59N 52°32' E 004°16'0 0.0
2017-Dec-02 19:30N 52°32' E 004°16'0 0.0
2017-Dec-02 19:00N 52°32' E 004°16'0 0.2
2017-Dec-02 18:30N 52°32' E 004°16'0 0.2
2017-Dec-02 17:59N 52°32' E 004°16'0 0.2
2017-Dec-02 17:29N 52°32' E 004°16'0 0.1
2017-Dec-02 17:00N 52°32' E 004°16'0 0.1
2017-Dec-02 16:30N 52°32' E 004°16'0 0.0
2017-Dec-02 15:59N 52°32' E 004°16'0 0.0
2017-Dec-02 15:29N 52°32' E 004°16'0 0.0
2017-Dec-02 15:00N 52°32' E 004°16'0 0.0
2017-Dec-02 14:30N 52°32' E 004°16'0 0.0
2017-Dec-02 13:59N 52°32' E 004°16'0 0.0
2017-Dec-02 13:29N 52°32' E 004°16'0 0.0
2017-Dec-02 13:00N 52°32' E 004°16'0 0.0
2017-Dec-02 12:30N 52°32' E 004°16'0 0.0
2017-Dec-02 11:59N 52°32' E 004°16'0 0.3
2017-Dec-02 11:29N 52°32' E 004°16'0 0.2
2017-Dec-02 11:00N 52°32' E 004°16'311597.5
2017-Dec-02 11:00N 52°30' E 004°12'3 6.4 200 / 121032.1 5.4 7.0 2.110.5
2017-Dec-02 10:29N 52°32' E 004°16'0 0.0
2017-Dec-02 09:57N 52°32' E 004°16'0 0.0
2017-Dec-02 09:29N 52°32' E 004°16'0 0.0
2017-Dec-02 09:00N 52°32' E 004°16'0 0.0
2017-Dec-02 08:29N 52°32' E 004°16'0 0.0
2017-Dec-02 07:59N 52°32' E 004°16'0 0.0
2017-Dec-02 07:30N 52°32' E 004°16'0 0.0
2017-Dec-02 07:00N 52°32' E 004°16'0 0.1
2017-Dec-02 06:30N 52°32' E 004°16'0 0.1
2017-Dec-02 06:00N 52°32' E 004°16'0 0.1
2017-Dec-02 05:29N 52°32' E 004°16'0 0.1
2017-Dec-02 04:59N 52°32' E 004°16'0 0.2
2017-Dec-02 04:30N 52°32' E 004°16'0 0.1
2017-Dec-02 03:59N 52°32' E 004°16'0 0.1
2017-Dec-02 03:29N 52°32' E 004°16'0 0.1
2017-Dec-02 02:59N 52°32' E 004°16'0 0.0
2017-Dec-02 02:30N 52°32' E 004°16'0 0.0
2017-Dec-02 01:59N 52°32' E 004°16'0 0.1
2017-Dec-02 01:30N 52°32' E 004°16'0 0.1
2017-Dec-02 00:59N 52°32' E 004°16'0 0.0
2017-Dec-02 00:29N 52°32' E 004°16'0 0.1
2017-Dec-01 23:59N 52°32' E 004°16'0 0.5
2017-Dec-01 23:30N 52°32' E 004°16'0 0.0
2017-Dec-01 23:00N 52°32' E 004°16'0 0.0
2017-Dec-01 22:30N 52°32' E 004°16'0 0.0
2017-Dec-01 22:00N 52°32' E 004°16'0 0.0
2017-Dec-01 21:30N 52°32' E 004°16'0 0.0
2017-Dec-01 21:00N 52°32' E 004°16'0 0.1
2017-Dec-01 20:29N 52°32' E 004°16'0 0.0
2017-Dec-01 19:59N 52°32' E 004°16'0 0.0
2017-Dec-01 19:29N 52°32' E 004°16'0 0.0
2017-Dec-01 18:59N 52°32' E 004°16'0 0.0
2017-Dec-01 18:29N 52°32' E 004°16'0 0.0
2017-Dec-01 18:00N 52°32' E 004°16'0 0.1
2017-Dec-01 17:30N 52°32' E 004°16'  
Track history (hours):
 
Tides and Currents Weather Stations Pressure Air Temp Water Temp Dewpoint Dewpoint Depression Visibility Wind Speed Wind Dir Waves Ship Positions

Federal Yukina

Last reported at 2017-Dec-11 17:00 UTC. Time now 2017-Dec-11 19:16 UTC.
Position N 55°47' E 012°42'.

Length 200 m; draft 7 m.

Type: Cargo ship. MMSI: 477959900.

Date/timePositionNaut miles runAvg speedWind from/ knotsBaromVisibWave heightAir tempDewpointWater temp
2017-Dec-11 17:00N 55°47' E 012°42'612.4
2017-Dec-11 16:30N 55°53' E 012°40'612.1
2017-Dec-11 16:00N 55°59' E 012°40'611.9
2017-Dec-11 15:30N 56°05' E 012°36'510.1
2017-Dec-11 15:00N 56°08' E 012°29'4 8.7
2017-Dec-11 14:30N 56°10' E 012°23'510.2
2017-Dec-11 14:00N 56°13' E 012°15'5010.2
2017-Dec-11 09:06N 57°00' E 011°42'110.5
2017-Dec-11 09:00N 57°01' E 011°42'510.4
2017-Dec-11 08:30N 57°06' E 011°38'510.2
2017-Dec-11 08:00N 57°11' E 011°35'510.1
2017-Dec-11 07:30N 57°15' E 011°32'5 9.9
2017-Dec-11 07:00N 57°20' E 011°29'5 9.7
2017-Dec-11 06:30N 57°25' E 011°26'5 9.7
2017-Dec-11 06:00N 57°29' E 011°21'510.2
2017-Dec-11 05:30N 57°32' E 011°14'510.3
2017-Dec-11 05:00N 57°36' E 011°08'510.2
2017-Dec-11 04:30N 57°39' E 011°01'510.1
2017-Dec-11 04:00N 57°43' E 010°54'5 9.9
2017-Dec-11 03:30N 57°46' E 010°47'5 9.4
2017-Dec-11 03:00N 57°49' E 010°41'4 8.3
2017-Dec-11 02:30N 57°52' E 010°35'510.9
2017-Dec-11 02:00N 57°56' E 010°27'611.1
2017-Dec-11 01:29N 57°60' E 010°19'19 9.0
2017-Dec-10 23:25N 57°56' E 009°45'4 9.8
2017-Dec-10 22:59N 57°53' E 009°38'611.5
2017-Dec-10 22:29N 57°50' E 009°29'611.4
2017-Dec-10 21:59N 57°47' E 009°20'11711.7
2017-Dec-10 12:00N 56°18' E 007°00'17611.1 160 / 10992.5 5.4 6.0 3.610.5
2017-Dec-09 20:14N 53°39' E 004°52'211.1
2017-Dec-09 20:00N 53°36' E 004°50'510.1
2017-Dec-09 19:30N 53°32' E 004°48'3 6.5
2017-Dec-09 18:59N 53°29' E 004°45'5 9.4
2017-Dec-09 18:27N 53°24' E 004°42'4 9.4
2017-Dec-09 18:00N 53°20' E 004°41'5 9.5
2017-Dec-09 17:30N 53°15' E 004°38'5 9.6
2017-Dec-09 17:00N 53°11' E 004°34'5 9.6
2017-Dec-09 16:30N 53°07' E 004°30'5 9.6
2017-Dec-09 16:00N 53°03' E 004°26'5 9.4
2017-Dec-09 15:31N 52°59' E 004°22'5 9.0
2017-Dec-09 15:01N 52°55' E 004°19'5 9.6
2017-Dec-09 14:31N 52°50' E 004°15'5 9.3
2017-Dec-09 14:00N 52°47' E 004°11'4 8.3
2017-Dec-09 13:31N 52°43' E 004°07'4 7.9
2017-Dec-09 13:00N 52°39' E 004°05'4 7.8
2017-Dec-09 12:30N 52°36' E 004°06'3 6.8
2017-Dec-09 12:01N 52°33' E 004°09'4 7.5
2017-Dec-09 11:31N 52°32' E 004°15'2 3.1
2017-Dec-09 11:01N 52°33' E 004°18'1 2.6
2017-Dec-09 10:31N 52°34' E 004°20'1 2.4
2017-Dec-09 10:01N 52°35' E 004°21'2 3.3
2017-Dec-09 09:31N 52°36' E 004°20'0 1.0
2017-Dec-09 09:01N 52°36' E 004°20'1 1.2
2017-Dec-09 08:30N 52°36' E 004°21'1 1.4
2017-Dec-09 08:01N 52°35' E 004°20'1 1.3
2017-Dec-09 07:31N 52°35' E 004°20'1 1.2
2017-Dec-09 07:01N 52°34' E 004°19'0 1.0
2017-Dec-09 06:31N 52°34' E 004°19'1 1.7
2017-Dec-09 06:00N 52°33' E 004°18'1 1.2
2017-Dec-09 05:31N 52°32' E 004°18'1 1.0
2017-Dec-09 05:01N 52°32' E 004°18'0 0.1
2017-Dec-09 04:30N 52°32' E 004°18'0 0.2
2017-Dec-09 04:01N 52°32' E 004°18'0 0.6
2017-Dec-09 03:31N 52°32' E 004°19'0 0.5
2017-Dec-09 03:01N 52°32' E 004°18'0 0.9
2017-Dec-09 02:30N 52°32' E 004°19'0 0.3
2017-Dec-09 02:00N 52°32' E 004°19'0 0.5
2017-Dec-09 01:30N 52°32' E 004°18'0 0.8
2017-Dec-09 01:00N 52°31' E 004°19'0 0.7
2017-Dec-09 00:31N 52°31' E 004°19'0 0.1
2017-Dec-09 00:00N 52°31' E 004°19'0 0.5
2017-Dec-08 23:31N 52°31' E 004°19'0 0.3
2017-Dec-08 23:00N 52°31' E 004°19'0 0.4
2017-Dec-08 22:31N 52°31' E 004°19'0 0.6
2017-Dec-08 22:01N 52°31' E 004°18'1 1.4
2017-Dec-08 21:31N 52°32' E 004°19'1 1.3
2017-Dec-08 21:00N 52°32' E 004°19'1 1.0
2017-Dec-08 20:31N 52°33' E 004°19'0 0.7
2017-Dec-08 20:00N 52°33' E 004°20'0 0.5
2017-Dec-08 19:30N 52°33' E 004°20'0 0.5
2017-Dec-08 19:00N 52°33' E 004°20'1 1.1
2017-Dec-08 18:31N 52°33' E 004°21'0 0.5
2017-Dec-08 18:00N 52°33' E 004°21'0 0.2
2017-Dec-08 17:30N 52°33' E 004°21'0 0.7
2017-Dec-08 17:00N 52°34' E 004°22'1 1.7
2017-Dec-08 16:31N 52°34' E 004°23'0 0.8
2017-Dec-08 16:00N 52°33' E 004°23'1 1.7
2017-Dec-08 15:30N 52°33' E 004°22'0 1.0
2017-Dec-08 15:00N 52°33' E 004°21'1 1.2
2017-Dec-08 14:31N 52°33' E 004°20'0 0.9
2017-Dec-08 14:01N 52°33' E 004°20'1 1.7
2017-Dec-08 13:30N 52°33' E 004°18'2 3.4
2017-Dec-08 13:01N 52°32' E 004°16'2 4.1
2017-Dec-08 12:31N 52°30' E 004°16'1 1.5
2017-Dec-08 12:01N 52°30' E 004°17'1 2.0
2017-Dec-08 11:31N 52°30' E 004°19'1 2.7
2017-Dec-08 11:01N 52°30' E 004°21'1 2.8
2017-Dec-08 10:31N 52°29' E 004°23'2 3.9
2017-Dec-08 10:01N 52°29' E 004°26'4 7.5
2017-Dec-08 09:30N 52°28' E 004°32'2 4.1
2017-Dec-08 08:59N 52°28' E 004°36'0 0.0
2017-Dec-08 08:30N 52°28' E 004°36'0 0.0
2017-Dec-08 08:00N 52°28' E 004°36'0 0.0
2017-Dec-08 07:30N 52°28' E 004°36'0 0.0
2017-Dec-08 07:00N 52°28' E 004°36'0 0.0
2017-Dec-08 06:29N 52°28' E 004°36'0 0.0
2017-Dec-08 05:59N 52°28' E 004°36'0 0.0
2017-Dec-08 05:29N 52°28' E 004°36'0 0.0
2017-Dec-08 05:00N 52°28' E 004°36'0 0.0
2017-Dec-08 04:29N 52°28' E 004°36'0 0.0
2017-Dec-08 04:00N 52°28' E 004°36'0 0.0
2017-Dec-08 03:29N 52°28' E 004°36'0 0.0
2017-Dec-08 03:00N 52°28' E 004°36'0 0.0
2017-Dec-08 02:29N 52°28' E 004°36'0 0.0
2017-Dec-08 01:59N 52°28' E 004°36'0 0.0
2017-Dec-08 01:30N 52°28' E 004°36'0 0.0
2017-Dec-08 01:00N 52°28' E 004°36'0 0.0
2017-Dec-08 00:30N 52°28' E 004°36'0 0.0
2017-Dec-08 00:00N 52°28' E 004°36'0 0.0
2017-Dec-07 23:30N 52°28' E 004°36'0 0.0
2017-Dec-07 23:00N 52°28' E 004°36'0 0.0
2017-Dec-07 22:29N 52°28' E 004°36'0 0.0
2017-Dec-07 22:00N 52°28' E 004°36'0 0.0
2017-Dec-07 21:29N 52°28' E 004°36'0 0.0
2017-Dec-07 20:59N 52°28' E 004°36'0 0.0
2017-Dec-07 20:29N 52°28' E 004°36'0 0.0
2017-Dec-07 19:59N 52°28' E 004°36'0 0.0
2017-Dec-07 19:29N 52°28' E 004°36'0 0.0
2017-Dec-07 18:59N 52°28' E 004°36'0 0.0
2017-Dec-07 18:29N 52°28' E 004°36'0 0.0
2017-Dec-07 17:59N 52°28' E 004°36'0 0.0
2017-Dec-07 17:29N 52°28' E 004°36'0 0.0
2017-Dec-07 16:59N 52°28' E 004°36'0 0.0
2017-Dec-07 16:29N 52°28' E 004°36'0 0.0
2017-Dec-07 15:59N 52°28' E 004°36'0 0.0
2017-Dec-07 15:29N 52°28' E 004°36'0 0.0
2017-Dec-07 14:59N 52°28' E 004°36'0 0.0
2017-Dec-07 14:26N 52°28' E 004°36'0 0.0
2017-Dec-07 13:59N 52°28' E 004°36'0 0.0
2017-Dec-07 13:29N 52°28' E 004°36'0 0.0
2017-Dec-07 12:59N 52°28' E 004°36'0 0.0
2017-Dec-07 12:29N 52°28' E 004°36'0 0.0
2017-Dec-07 11:59N 52°28' E 004°36'0 0.0
2017-Dec-07 11:29N 52°28' E 004°36'0 0.0
2017-Dec-07 10:59N 52°28' E 004°36'0 0.0
2017-Dec-07 10:29N 52°28' E 004°36'0 0.0
2017-Dec-07 09:59N 52°28' E 004°36'0 0.0
2017-Dec-07 09:29N 52°28' E 004°36'0 0.0
2017-Dec-07 08:59N 52°28' E 004°36'0 0.0
2017-Dec-07 08:29N 52°28' E 004°36'0 0.0
2017-Dec-07 07:59N 52°28' E 004°36'0 0.0
2017-Dec-07 07:29N 52°28' E 004°36'0 0.0
2017-Dec-07 06:59N 52°28' E 004°36'0 0.0
2017-Dec-07 06:29N 52°28' E 004°36'0 0.0
2017-Dec-07 05:59N 52°28' E 004°36'0 0.0
2017-Dec-07 05:29N 52°28' E 004°36'0 0.0
2017-Dec-07 04:59N 52°28' E 004°36'0 0.0
2017-Dec-07 04:29N 52°28' E 004°36'0 0.0
2017-Dec-07 03:59N 52°28' E 004°36'0 0.0
2017-Dec-07 03:29N 52°28' E 004°36'0 0.0
2017-Dec-07 02:59N 52°28' E 004°36'0 0.0
2017-Dec-07 02:29N 52°28' E 004°36'0 0.0
2017-Dec-07 01:59N 52°28' E 004°36'0 0.0
2017-Dec-07 01:29N 52°28' E 004°36'0 0.0
2017-Dec-07 00:59N 52°28' E 004°36'0 0.0
2017-Dec-07 00:29N 52°28' E 004°36'0 0.0
2017-Dec-06 23:59N 52°28' E 004°36'0 0.0
2017-Dec-06 23:29N 52°28' E 004°36'0 0.0
2017-Dec-06 22:59N 52°28' E 004°36'0 0.0
2017-Dec-06 22:29N 52°28' E 004°36'0 0.0
2017-Dec-06 21:59N 52°28' E 004°36'0 0.0
2017-Dec-06 21:29N 52°28' E 004°36'0 0.0
2017-Dec-06 20:59N 52°28' E 004°36'14 0.4
2017-Dec-05 12:00N 52°30' E 004°12'0 0.0 270 / 151037.2 5.4 10.0 7.910.0
2017-Dec-04 13:00N 52°30' E 004°12'3 1.3 290 / 251035.1 5.4 9.0 6.910.5
2017-Dec-04 10:30N 52°32' E 004°16'0 0.0
2017-Dec-04 10:00N 52°32' E 004°16'0 0.0
2017-Dec-04 09:30N 52°32' E 004°16'0 0.0
2017-Dec-04 09:00N 52°32' E 004°16'0 0.0
2017-Dec-04 08:30N 52°32' E 004°16'0 0.0
2017-Dec-04 07:59N 52°32' E 004°16'0 0.1
2017-Dec-04 07:30N 52°32' E 004°16'0 0.1
2017-Dec-04 06:59N 52°32' E 004°16'0 0.1
2017-Dec-04 06:30N 52°32' E 004°16'0 0.0
2017-Dec-04 06:00N 52°32' E 004°16'0 0.4
2017-Dec-04 05:30N 52°32' E 004°16'0 0.2
2017-Dec-04 04:59N 52°32' E 004°16'0 0.1
2017-Dec-04 04:30N 52°32' E 004°16'0 0.0
2017-Dec-04 03:59N 52°32' E 004°16'0 0.0
2017-Dec-04 03:30N 52°32' E 004°16'0 0.0
2017-Dec-04 02:59N 52°32' E 004°16'0 0.0
2017-Dec-04 02:29N 52°32' E 004°16'0 0.1
2017-Dec-04 01:59N 52°32' E 004°16'0 0.3
2017-Dec-04 01:29N 52°32' E 004°16'0 0.2
2017-Dec-04 01:00N 52°32' E 004°16'0 0.1
2017-Dec-04 00:30N 52°32' E 004°16'0 0.1
2017-Dec-04 00:00N 52°32' E 004°16'0 0.0
2017-Dec-03 23:29N 52°32' E 004°16'0 0.0
2017-Dec-03 23:00N 52°32' E 004°16'0 0.0
2017-Dec-03 22:29N 52°32' E 004°16'0 0.0
2017-Dec-03 22:00N 52°32' E 004°16'0 0.0
2017-Dec-03 21:30N 52°32' E 004°16'0 0.0
2017-Dec-03 21:00N 52°32' E 004°16'0 0.0
2017-Dec-03 20:29N 52°32' E 004°16'0 0.0
2017-Dec-03 19:59N 52°32' E 004°16'0 0.0
2017-Dec-03 19:26N 52°32' E 004°16'0 0.1
2017-Dec-03 18:57N 52°32' E 004°16'0 0.1
2017-Dec-03 18:29N 52°32' E 004°16'0 0.1
2017-Dec-03 18:00N 52°32' E 004°16'0 0.2
2017-Dec-03 17:29N 52°32' E 004°16'0 0.2
2017-Dec-03 17:00N 52°32' E 004°16'0 0.1
2017-Dec-03 16:29N 52°32' E 004°16'0 0.0
2017-Dec-03 16:00N 52°32' E 004°16'0 0.0
2017-Dec-03 15:30N 52°32' E 004°16'0 0.0
2017-Dec-03 15:00N 52°32' E 004°16'0 0.0
2017-Dec-03 14:30N 52°32' E 004°16'0 0.0
2017-Dec-03 14:00N 52°32' E 004°16'312035.4
2017-Dec-03 14:00N 52°30' E 004°12'3 6.7 320 / 151028.1 2.2 6.0 3.611.0
2017-Dec-03 13:30N 52°32' E 004°16'0 0.1
2017-Dec-03 12:59N 52°32' E 004°16'0 0.3
2017-Dec-03 12:29N 52°32' E 004°16'0 0.1
2017-Dec-03 11:59N 52°32' E 004°16'0 0.1
2017-Dec-03 11:29N 52°32' E 004°16'0 0.1
2017-Dec-03 11:00N 52°32' E 004°16'0 0.0
2017-Dec-03 10:29N 52°32' E 004°16'0 0.0
2017-Dec-03 10:00N 52°32' E 004°16'0 0.0
2017-Dec-03 09:30N 52°32' E 004°16'0 0.0
2017-Dec-03 08:59N 52°32' E 004°16'0 0.0
2017-Dec-03 08:30N 52°32' E 004°16'0 0.0
2017-Dec-03 08:00N 52°32' E 004°16'0 0.0
2017-Dec-03 07:30N 52°32' E 004°16'0 0.0
2017-Dec-03 07:00N 52°32' E 004°16'0 0.1
2017-Dec-03 06:30N 52°32' E 004°16'0 0.2
2017-Dec-03 06:00N 52°32' E 004°16'0 0.1
2017-Dec-03 05:29N 52°32' E 004°16'0 0.2
2017-Dec-03 05:00N 52°32' E 004°16'0 0.1
2017-Dec-03 04:30N 52°32' E 004°16'0 0.1
2017-Dec-03 03:59N 52°32' E 004°16'0 0.0
2017-Dec-03 03:29N 52°32' E 004°16'0 0.0
2017-Dec-03 03:00N 52°32' E 004°16'0 0.0
2017-Dec-03 02:29N 52°32' E 004°16'0 0.0
2017-Dec-03 01:59N 52°32' E 004°16'0 0.0
2017-Dec-03 01:29N 52°32' E 004°16'0 0.1
2017-Dec-03 01:00N 52°32' E 004°16'0 0.1
2017-Dec-03 00:29N 52°32' E 004°16'0 0.1
2017-Dec-02 23:56N 52°32' E 004°16'0 0.2
2017-Dec-02 23:30N 52°32' E 004°16'0 0.2
2017-Dec-02 23:00N 52°32' E 004°16'0 0.1
2017-Dec-02 22:30N 52°32' E 004°16'0 0.0
2017-Dec-02 21:59N 52°32' E 004°16'0 0.0
2017-Dec-02 21:30N 52°32' E 004°16'0 0.0
2017-Dec-02 20:59N 52°32' E 004°16'0 0.0
2017-Dec-02 20:30N 52°32' E 004°16'0 0.0
2017-Dec-02 19:59N 52°32' E 004°16'0 0.0
2017-Dec-02 19:30N 52°32' E 004°16'0 0.0
2017-Dec-02 19:00N 52°32' E 004°16'0 0.2
2017-Dec-02 18:30N 52°32' E 004°16'0 0.2
2017-Dec-02 17:59N 52°32' E 004°16'0 0.2
2017-Dec-02 17:29N 52°32' E 004°16'0 0.1
2017-Dec-02 17:00N 52°32' E 004°16'0 0.1
2017-Dec-02 16:30N 52°32' E 004°16'0 0.0
2017-Dec-02 15:59N 52°32' E 004°16'0 0.0
2017-Dec-02 15:29N 52°32' E 004°16'0 0.0
2017-Dec-02 15:00N 52°32' E 004°16'0 0.0
2017-Dec-02 14:30N 52°32' E 004°16'0 0.0
2017-Dec-02 13:59N 52°32' E 004°16'0 0.0
2017-Dec-02 13:29N 52°32' E 004°16'0 0.0
2017-Dec-02 13:00N 52°32' E 004°16'0 0.0
2017-Dec-02 12:30N 52°32' E 004°16'0 0.0
2017-Dec-02 11:59N 52°32' E 004°16'0 0.3
2017-Dec-02 11:29N 52°32' E 004°16'0 0.2
2017-Dec-02 11:00N 52°32' E 004°16'311597.5
2017-Dec-02 11:00N 52°30' E 004°12'3 6.4 200 / 121032.1 5.4 7.0 2.110.5
2017-Dec-02 10:29N 52°32' E 004°16'0 0.0
2017-Dec-02 09:57N 52°32' E 004°16'0 0.0
2017-Dec-02 09:29N 52°32' E 004°16'0 0.0
2017-Dec-02 09:00N 52°32' E 004°16'0 0.0
2017-Dec-02 08:29N 52°32' E 004°16'0 0.0
2017-Dec-02 07:59N 52°32' E 004°16'0 0.0
2017-Dec-02 07:30N 52°32' E 004°16'0 0.0
2017-Dec-02 07:00N 52°32' E 004°16'0 0.1
2017-Dec-02 06:30N 52°32' E 004°16'0 0.1
2017-Dec-02 06:00N 52°32' E 004°16'0 0.1
2017-Dec-02 05:29N 52°32' E 004°16'0 0.1
2017-Dec-02 04:59N 52°32' E 004°16'0 0.2
2017-Dec-02 04:30N 52°32' E 004°16'0 0.1
2017-Dec-02 03:59N 52°32' E 004°16'0 0.1
2017-Dec-02 03:29N 52°32' E 004°16'0 0.1
2017-Dec-02 02:59N 52°32' E 004°16'0 0.0
2017-Dec-02 02:30N 52°32' E 004°16'0 0.0
2017-Dec-02 01:59N 52°32' E 004°16'0 0.1
2017-Dec-02 01:30N 52°32' E 004°16'0 0.1
2017-Dec-02 00:59N 52°32' E 004°16'0 0.0
2017-Dec-02 00:29N 52°32' E 004°16'0 0.1
2017-Dec-01 23:59N 52°32' E 004°16'0 0.5
2017-Dec-01 23:30N 52°32' E 004°16'0 0.0
2017-Dec-01 23:00N 52°32' E 004°16'0 0.0
2017-Dec-01 22:30N 52°32' E 004°16'0 0.0
2017-Dec-01 22:00N 52°32' E 004°16'0 0.0
2017-Dec-01 21:30N 52°32' E 004°16'0 0.0
2017-Dec-01 21:00N 52°32' E 004°16'0 0.1
2017-Dec-01 20:29N 52°32' E 004°16'0 0.0
2017-Dec-01 19:59N 52°32' E 004°16'0 0.0
2017-Dec-01 19:29N 52°32' E 004°16'0 0.0
2017-Dec-01 18:59N 52°32' E 004°16'0 0.0
2017-Dec-01 18:29N 52°32' E 004°16'0 0.0
2017-Dec-01 18:00N 52°32' E 004°16'0 0.1
2017-Dec-01 17:30N 52°32' E 004°16'  

Dump ship's entire track history